createdAt,value
2018-08-24T00:02:05.098Z,2.63
2018-08-24T00:04:33.110Z,2.27
2018-08-24T00:07:01.114Z,2.00
2018-08-24T00:09:29.114Z,3.43
2018-08-24T00:11:57.118Z,1.90
2018-08-24T00:14:25.116Z,2.23
2018-08-24T00:16:53.106Z,2.40
2018-08-24T00:19:21.106Z,3.87
2018-08-24T00:21:49.137Z,3.00
2018-08-24T00:24:17.157Z,2.10
2018-08-24T00:26:45.266Z,2.70
2018-08-24T00:29:13.266Z,3.30
2018-08-24T00:31:41.290Z,2.57
2018-08-24T00:34:09.273Z,2.10
2018-08-24T00:36:37.277Z,1.90
2018-08-24T00:39:06.866Z,2.20
2018-08-24T00:41:34.897Z,2.13
2018-08-24T00:44:02.910Z,2.10
2018-08-24T00:46:30.901Z,1.70
2018-08-24T00:48:58.905Z,3.30
2018-08-24T00:51:26.905Z,2.20
2018-08-24T00:53:54.902Z,1.80
2018-08-24T00:56:22.893Z,2.23
2018-08-24T00:58:50.890Z,3.50
2018-08-24T01:01:18.874Z,1.90
2018-08-24T01:03:46.882Z,1.83
2018-08-24T01:06:19.210Z,2.27
2018-08-24T01:08:47.370Z,2.27
2018-08-24T01:11:15.357Z,4.63
2018-08-24T01:13:43.366Z,3.37
2018-08-24T01:16:15.693Z,1.87
2018-08-24T01:18:47.770Z,2.43
2018-08-24T01:21:15.827Z,2.23
2018-08-24T01:23:43.834Z,2.37
2018-08-24T01:26:12.996Z,3.13
2018-08-24T01:28:41.007Z,1.70
2018-08-24T01:31:09.330Z,2.77
2018-08-24T01:33:37.325Z,4.20
2018-08-24T01:36:05.321Z,2.53
2018-08-24T01:38:33.322Z,2.50
2018-08-24T01:41:01.338Z,2.10
2018-08-24T01:43:29.346Z,2.73
2018-08-24T01:46:02.882Z,2.60
2018-08-24T01:48:30.893Z,2.23
2018-08-24T01:50:58.905Z,2.30
2018-08-24T01:53:26.925Z,2.30
2018-08-24T01:55:54.942Z,3.00
2018-08-24T01:58:22.933Z,2.13
2018-08-24T02:00:50.934Z,2.17
2018-08-24T02:03:18.930Z,2.90
2018-08-24T02:05:47.054Z,3.40
2018-08-24T02:08:15.050Z,2.23
2018-08-24T02:10:43.050Z,2.67
2018-08-24T02:13:16.502Z,2.43
2018-08-24T02:15:45.063Z,2.40
2018-08-24T02:18:18.931Z,2.87
2018-08-24T02:20:52.493Z,2.30
2018-08-24T02:23:20.530Z,3.10
2018-08-24T02:25:48.547Z,2.60
2018-08-24T02:28:16.622Z,2.70
2018-08-24T02:30:44.650Z,3.20
2018-08-24T02:33:12.642Z,2.97
2018-08-24T02:35:40.686Z,2.93
2018-08-24T02:38:08.690Z,3.60
2018-08-24T02:40:36.697Z,6.10
2018-08-24T02:43:04.703Z,3.13
2018-08-24T02:45:32.722Z,3.30
2018-08-24T02:48:00.726Z,8.03
2018-08-24T02:50:28.779Z,4.17
2018-08-24T02:52:56.782Z,5.83
2018-08-24T02:55:24.888Z,3.20
2018-08-24T02:57:52.865Z,3.70
2018-08-24T03:00:20.883Z,2.80
2018-08-24T03:02:48.879Z,6.13
2018-08-24T03:05:16.990Z,2.70
2018-08-24T03:07:44.863Z,3.20
2018-08-24T03:10:12.850Z,2.90
2018-08-24T03:12:40.894Z,3.87
2018-08-24T03:15:08.878Z,3.83
2018-08-24T03:17:42.467Z,3.20
2018-08-24T03:20:10.454Z,5.80
2018-08-24T03:22:38.426Z,4.13
2018-08-24T03:25:06.411Z,5.97
2018-08-24T03:27:34.377Z,4.23
2018-08-24T03:30:02.368Z,4.13
2018-08-24T03:32:30.364Z,3.73
2018-08-24T03:34:58.358Z,4.80
2018-08-24T03:37:26.542Z,3.63
2018-08-24T03:39:54.529Z,5.43
2018-08-24T03:42:22.526Z,5.93
2018-08-24T03:44:50.503Z,4.03
2018-08-24T03:47:18.490Z,5.03
2018-08-24T03:49:46.502Z,4.80
2018-08-24T03:52:14.493Z,4.27
2018-08-24T03:54:42.479Z,4.63
2018-08-24T03:57:10.466Z,6.83
2018-08-24T03:59:38.433Z,5.37
2018-08-24T04:02:08.511Z,5.67
2018-08-24T04:04:36.482Z,4.93
2018-08-24T04:07:04.453Z,4.70
2018-08-24T04:09:32.490Z,6.83
2018-08-24T04:12:00.476Z,5.03
2018-08-24T04:14:28.449Z,5.23
2018-08-24T04:17:02.043Z,4.63
2018-08-24T04:19:30.035Z,5.60
2018-08-24T04:21:58.410Z,5.37
2018-08-24T04:24:26.379Z,4.40
2018-08-24T04:26:55.161Z,9.80
2018-08-24T04:29:23.637Z,4.30
2018-08-24T04:31:51.626Z,4.90
2018-08-24T04:34:19.622Z,7.80
2018-08-24T04:36:47.605Z,4.70
2018-08-24T04:39:15.583Z,5.23
2018-08-24T04:41:44.115Z,5.20
2018-08-24T04:44:12.578Z,6.40
2018-08-24T04:46:40.582Z,6.80
2018-08-24T04:49:08.566Z,4.43
2018-08-24T04:51:36.554Z,5.03
2018-08-24T04:54:04.526Z,5.20
2018-08-24T04:56:32.647Z,9.07
2018-08-24T04:59:01.310Z,7.23
2018-08-24T05:01:29.414Z,7.23
2018-08-24T05:03:58.478Z,4.53
2018-08-24T05:06:26.468Z,6.40
2018-08-24T05:08:54.442Z,7.80
2018-08-24T05:11:22.423Z,5.60
2018-08-24T05:13:50.398Z,16.03
2018-08-24T05:16:18.381Z,8.03
2018-08-24T05:18:46.358Z,4.87
2018-08-24T05:21:14.386Z,7.10
2018-08-24T05:23:42.310Z,5.60
2018-08-24T05:26:10.296Z,8.93
2018-08-24T05:28:38.383Z,5.43
2018-08-24T05:31:06.371Z,3.97
2018-08-24T05:33:34.358Z,6.30
2018-08-24T05:36:02.333Z,6.87
2018-08-24T05:38:30.314Z,5.03
2018-08-24T05:40:58.301Z,8.63
2018-08-24T05:43:26.308Z,6.80
2018-08-24T05:45:54.379Z,4.60
2018-08-24T05:48:22.386Z,6.00
2018-08-24T05:50:50.379Z,8.40
2018-08-24T05:53:18.387Z,4.07
2018-08-24T05:55:46.464Z,3.40
2018-08-24T05:58:14.391Z,4.30
2018-08-24T06:00:45.148Z,4.67
2018-08-24T06:03:13.395Z,3.37
2018-08-24T06:05:47.015Z,3.73
2018-08-24T06:08:14.965Z,4.27
2018-08-24T06:10:43.014Z,3.50
2018-08-24T06:13:15.346Z,3.60
2018-08-24T06:15:43.500Z,3.60
2018-08-24T06:18:12.127Z,4.10
2018-08-24T06:20:40.128Z,3.90
2018-08-24T06:23:08.143Z,3.70
2018-08-24T06:25:36.143Z,2.77
2018-08-24T06:28:04.251Z,3.00
2018-08-24T06:30:32.243Z,3.83
2018-08-24T06:33:00.238Z,5.37
2018-08-24T06:35:28.222Z,3.03
2018-08-24T06:37:56.218Z,3.33
2018-08-24T06:40:24.203Z,3.10
2018-08-24T06:42:52.198Z,6.87
2018-08-24T06:45:20.198Z,5.77
2018-08-24T06:47:48.284Z,3.37
2018-08-24T06:50:16.182Z,7.53
2018-08-24T06:52:44.188Z,5.50
2018-08-24T06:55:12.183Z,4.10
2018-08-24T06:57:40.194Z,5.83
2018-08-24T07:00:08.620Z,4.60
2018-08-24T07:02:36.615Z,6.60
2018-08-24T07:05:04.647Z,2.63
2018-08-24T07:07:32.764Z,2.70
2018-08-24T07:10:00.751Z,3.90
2018-08-24T07:12:28.735Z,3.23
2018-08-24T07:14:56.715Z,2.30
2018-08-24T07:17:30.103Z,3.20
2018-08-24T07:19:58.092Z,5.17
2018-08-24T07:22:26.170Z,4.20
2018-08-24T07:24:54.166Z,3.50
2018-08-24T07:27:22.168Z,2.97
2018-08-24T07:29:50.195Z,9.03
2018-08-24T07:32:18.258Z,9.13
2018-08-24T07:34:46.290Z,3.20
2018-08-24T07:37:14.299Z,2.87
2018-08-24T07:39:42.302Z,3.27
2018-08-24T07:42:10.306Z,5.10
2018-08-24T07:44:43.770Z,3.17
2018-08-24T07:47:11.766Z,2.60
2018-08-24T07:49:39.778Z,4.57
2018-08-24T07:52:07.827Z,3.17
2018-08-24T07:54:35.846Z,3.77
2018-08-24T07:57:04.063Z,3.60
2018-08-24T07:59:32.062Z,6.60
2018-08-24T08:02:00.097Z,9.00
2018-08-24T08:04:28.125Z,3.13
2018-08-24T08:06:56.131Z,3.40
2018-08-24T08:09:24.193Z,3.90
2018-08-24T08:11:52.204Z,4.30
2018-08-24T08:14:20.220Z,3.07
2018-08-24T08:16:52.571Z,5.47
2018-08-24T08:19:20.596Z,2.93
2018-08-24T08:21:48.616Z,2.83
2018-08-24T08:24:16.627Z,6.90
2018-08-24T08:26:44.712Z,4.20
2018-08-24T08:29:17.056Z,7.60
2018-08-24T08:31:45.423Z,5.43
2018-08-24T08:34:13.418Z,4.17
2018-08-24T08:36:41.424Z,4.20
2018-08-24T08:39:10.795Z,7.83
2018-08-24T08:41:38.969Z,4.53
2018-08-24T08:44:07.045Z,5.00
2018-08-24T08:46:35.055Z,3.50
2018-08-24T08:49:03.080Z,2.83
2018-08-24T08:51:31.066Z,3.83
2018-08-24T08:53:59.088Z,4.50
2018-08-24T08:56:27.080Z,4.90
2018-08-24T08:58:55.087Z,5.70
2018-08-24T09:01:24.116Z,4.20
2018-08-24T09:03:52.140Z,3.83
2018-08-24T09:06:20.196Z,3.37
2018-08-24T09:08:48.572Z,2.60
2018-08-24T09:11:16.618Z,3.83
2018-08-24T09:13:44.606Z,4.80
2018-08-24T09:16:12.627Z,5.90
2018-08-24T09:18:46.049Z,3.10
2018-08-24T09:21:19.564Z,5.03
2018-08-24T09:23:52.979Z,4.90
2018-08-24T09:26:26.421Z,4.43
2018-08-24T09:28:55.279Z,3.20
2018-08-24T09:31:26.538Z,3.57
2018-08-24T09:33:54.573Z,4.07
2018-08-24T09:36:23.087Z,6.83
2018-08-24T09:38:52.128Z,6.30
2018-08-24T09:41:20.239Z,4.50
2018-08-24T09:43:59.456Z,4.70
2018-08-24T09:46:32.908Z,9.23
2018-08-24T09:49:06.344Z,11.03
2018-08-24T09:51:34.325Z,3.93
2018-08-24T09:54:09.371Z,8.07
2018-08-24T09:56:38.597Z,5.37
2018-08-24T09:59:06.635Z,7.50
2018-08-24T10:01:40.318Z,7.63
2018-08-24T10:04:13.773Z,7.77
2018-08-24T10:06:47.399Z,7.43
2018-08-24T10:09:15.938Z,6.70
2018-08-24T10:11:44.835Z,7.17
2018-08-24T10:14:13.001Z,6.07
2018-08-24T10:16:41.039Z,6.00
2018-08-24T10:19:12.012Z,5.53
2018-08-24T10:21:40.022Z,8.93
2018-08-24T10:24:08.295Z,6.47
2018-08-24T10:26:36.371Z,6.60
2018-08-24T10:29:04.767Z,7.00
2018-08-24T10:31:36.371Z,6.27
2018-08-24T10:34:04.400Z,6.67
2018-08-24T10:36:32.429Z,4.90
2018-08-24T10:39:00.455Z,9.40
2018-08-24T10:41:28.423Z,5.10
2018-08-24T10:43:56.436Z,4.80
2018-08-24T10:46:24.447Z,6.03
2018-08-24T10:48:52.551Z,7.77
2018-08-24T10:51:20.608Z,5.73
2018-08-24T10:53:48.607Z,7.90
2018-08-24T10:56:16.631Z,9.63
2018-08-24T10:58:44.627Z,9.77
2018-08-24T11:01:12.644Z,9.67
2018-08-24T11:03:40.835Z,8.77
2018-08-24T11:06:08.826Z,10.70
2018-08-24T11:08:36.842Z,7.23
2018-08-24T11:11:04.866Z,8.70
2018-08-24T11:13:32.888Z,14.33
2018-08-24T11:16:00.909Z,8.50
2018-08-24T11:18:28.929Z,8.27
2018-08-24T11:20:56.943Z,6.97
2018-08-24T11:23:24.955Z,8.30
2018-08-24T11:25:52.989Z,8.20
2018-08-24T11:28:21.000Z,7.77
2018-08-24T11:30:49.024Z,14.83
2018-08-24T11:33:17.047Z,10.30
2018-08-24T11:35:45.115Z,8.60
2018-08-24T11:38:13.103Z,6.63
2018-08-24T11:40:41.104Z,9.03
2018-08-24T11:43:09.139Z,11.00
2018-08-24T11:45:37.134Z,9.83
2018-08-24T11:48:05.152Z,10.10
2018-08-24T11:50:33.147Z,8.30
2018-08-24T11:53:01.478Z,8.60
2018-08-24T11:55:29.493Z,7.77
2018-08-24T11:57:57.516Z,11.07
2018-08-24T12:00:32.677Z,9.93
2018-08-24T12:03:01.500Z,15.20
2018-08-24T12:05:29.954Z,6.90
2018-08-24T12:07:58.111Z,7.23
2018-08-24T12:10:27.147Z,8.50
2018-08-24T12:12:55.470Z,5.07
2018-08-24T12:15:23.458Z,6.60
2018-08-24T12:17:52.440Z,5.50
2018-08-24T12:20:20.443Z,7.50
2018-08-24T12:22:48.454Z,5.83
2018-08-24T12:25:16.442Z,5.43
2018-08-24T12:27:44.452Z,8.70
2018-08-24T12:30:13.496Z,4.40
2018-08-24T12:32:41.487Z,6.43
2018-08-24T12:35:09.480Z,5.30
2018-08-24T12:37:44.786Z,7.87
2018-08-24T12:40:13.156Z,7.10
2018-08-24T12:42:41.170Z,5.53
2018-08-24T12:45:09.171Z,5.23
2018-08-24T12:47:37.184Z,5.17
2018-08-24T12:50:05.539Z,5.50
2018-08-24T12:52:33.551Z,7.13
2018-08-24T12:55:01.564Z,6.13
2018-08-24T12:57:30.396Z,8.10
2018-08-24T12:59:59.255Z,5.90
2018-08-24T13:02:27.176Z,6.97
2018-08-24T13:04:55.171Z,7.30
2018-08-24T13:07:23.180Z,6.30
2018-08-24T13:09:51.214Z,6.70
2018-08-24T13:12:19.276Z,7.40
2018-08-24T13:14:47.344Z,6.30
2018-08-24T13:17:15.392Z,5.50
2018-08-24T13:19:43.392Z,7.73
2018-08-24T13:22:11.397Z,5.80
2018-08-24T13:24:39.408Z,6.30
2018-08-24T13:27:07.449Z,6.90
2018-08-24T13:29:35.523Z,7.13
2018-08-24T13:32:03.594Z,5.50
2018-08-24T13:34:31.606Z,6.77
2018-08-24T13:36:59.645Z,5.80
2018-08-24T13:39:27.661Z,4.73
2018-08-24T13:42:02.299Z,5.40
2018-08-24T13:44:30.511Z,5.30
2018-08-24T13:46:58.525Z,5.30
2018-08-24T13:49:26.536Z,7.90
2018-08-24T13:51:54.535Z,6.23
2018-08-24T13:54:22.552Z,7.67
2018-08-24T13:56:50.590Z,4.73
2018-08-24T13:59:18.650Z,5.80
2018-08-24T14:01:46.622Z,5.67
2018-08-24T14:04:14.731Z,5.17
2018-08-24T14:06:42.731Z,5.57
2018-08-24T14:09:12.189Z,10.70
2018-08-24T14:11:40.415Z,6.57
2018-08-24T14:14:08.499Z,5.70
2018-08-24T14:16:37.185Z,5.20
2018-08-24T14:19:05.324Z,12.90
2018-08-24T14:21:33.523Z,5.77
2018-08-24T14:24:01.657Z,6.07
2018-08-24T14:26:29.675Z,5.43
2018-08-24T14:28:57.763Z,6.30
2018-08-24T14:31:26.114Z,6.37
2018-08-24T14:33:54.227Z,7.87
2018-08-24T14:36:22.371Z,6.50
2018-08-24T14:38:50.387Z,5.13
2018-08-24T14:41:18.531Z,5.90
2018-08-24T14:43:46.576Z,7.57
2018-08-24T14:46:14.651Z,11.90
2018-08-24T14:48:42.697Z,8.97
2018-08-24T14:51:10.791Z,7.53
2018-08-24T14:53:38.837Z,7.67
2018-08-24T14:56:07.007Z,12.97
2018-08-24T14:58:35.040Z,10.40
2018-08-24T15:01:03.078Z,20.17
2018-08-24T15:03:31.130Z,20.40
2018-08-24T15:05:59.136Z,18.70
2018-08-24T15:08:27.188Z,15.90
2018-08-24T15:10:55.291Z,20.80
2018-08-24T15:13:23.404Z,19.50
2018-08-24T15:15:51.573Z,16.23
2018-08-24T15:18:21.130Z,16.03
2018-08-24T15:20:49.265Z,21.50
2018-08-24T15:23:18.794Z,16.80
2018-08-24T15:25:46.985Z,19.00
2018-08-24T15:28:15.911Z,19.77
2018-08-24T15:30:55.399Z,22.30
2018-08-24T15:33:23.851Z,17.40
2018-08-24T15:35:55.425Z,15.80
2018-08-24T15:38:23.597Z,21.90
2018-08-24T15:40:58.834Z,15.80
2018-08-24T15:43:28.030Z,22.00
2018-08-24T15:45:57.956Z,15.77
2018-08-24T15:48:29.664Z,17.37
2018-08-24T15:51:05.154Z,18.17
2018-08-24T15:53:33.509Z,16.80
2018-08-24T15:56:01.856Z,15.50
2018-08-24T15:58:31.253Z,18.73
2018-08-24T16:00:59.634Z,25.03
2018-08-24T16:03:29.300Z,13.80
2018-08-24T16:05:57.324Z,16.33
2018-08-24T16:08:25.352Z,12.13
2018-08-24T16:10:53.471Z,12.20
2018-08-24T16:13:21.497Z,8.90
2018-08-24T16:15:49.552Z,9.37
2018-08-24T16:18:23.261Z,9.23
2018-08-24T16:20:51.922Z,9.43
2018-08-24T16:23:20.040Z,8.43
2018-08-24T16:25:48.266Z,10.03
2018-08-24T16:28:16.820Z,11.40
2018-08-24T16:30:44.951Z,8.90
2018-08-24T16:33:13.040Z,10.03
2018-08-24T16:35:41.227Z,10.50
2018-08-24T16:38:09.330Z,9.70
2018-08-24T16:40:37.472Z,8.80
2018-08-24T16:43:05.527Z,10.47
2018-08-24T16:45:33.618Z,11.20
2018-08-24T16:48:01.648Z,12.43
2018-08-24T16:50:29.743Z,13.20
2018-08-24T16:52:57.860Z,10.40
2018-08-24T16:55:25.918Z,10.37
2018-08-24T16:57:54.597Z,11.10
2018-08-24T17:00:22.683Z,13.00
2018-08-24T17:02:50.720Z,14.23
2018-08-24T17:05:18.799Z,8.40
2018-08-24T17:07:46.807Z,8.37
2018-08-24T17:10:14.839Z,10.50
2018-08-24T17:12:42.842Z,7.60
2018-08-24T17:15:10.862Z,9.70
2018-08-24T17:17:38.864Z,9.10
2018-08-24T17:20:06.897Z,8.90
2018-08-24T17:22:34.904Z,7.23
2018-08-24T17:25:02.972Z,9.53
2018-08-24T17:27:30.968Z,9.17
2018-08-24T17:29:58.973Z,8.77
2018-08-24T17:32:26.966Z,10.87
2018-08-24T17:34:55.056Z,10.17
2018-08-24T17:37:23.092Z,10.70
2018-08-24T17:39:51.086Z,10.43
2018-08-24T17:42:19.087Z,15.43
2018-08-24T17:44:47.084Z,10.90
2018-08-24T17:47:15.083Z,14.53
2018-08-24T17:49:43.139Z,11.47
2018-08-24T17:52:11.136Z,14.13
2018-08-24T17:54:39.118Z,10.60
2018-08-24T17:57:07.119Z,10.47
2018-08-24T17:59:35.109Z,9.67
2018-08-24T18:02:03.116Z,11.00
2018-08-24T18:04:31.106Z,16.20
2018-08-24T18:06:59.116Z,8.60
2018-08-24T18:09:27.105Z,13.00
2018-08-24T18:11:55.108Z,18.67
2018-08-24T18:14:23.102Z,11.90
2018-08-24T18:16:51.095Z,13.90
2018-08-24T18:19:19.105Z,10.37
2018-08-24T18:21:47.127Z,16.60
2018-08-24T18:24:15.143Z,9.90
2018-08-24T18:26:43.188Z,11.70
2018-08-24T18:29:11.189Z,8.60
2018-08-24T18:31:39.217Z,9.60
2018-08-24T18:34:07.247Z,11.03
2018-08-24T18:36:35.372Z,7.97
2018-08-24T18:39:03.988Z,10.83
2018-08-24T18:41:31.994Z,12.90
2018-08-24T18:44:00.083Z,10.47
2018-08-24T18:46:28.124Z,12.37
2018-08-24T18:48:56.778Z,11.07
2018-08-24T18:51:28.491Z,13.40
2018-08-24T18:53:56.534Z,13.33
2018-08-24T18:56:24.550Z,14.40
2018-08-24T18:58:52.567Z,12.43
2018-08-24T19:01:20.679Z,14.40
2018-08-24T19:03:48.717Z,12.73
2018-08-24T19:06:17.508Z,11.07
2018-08-24T19:08:45.768Z,11.10
2018-08-24T19:11:19.108Z,11.43
2018-08-24T19:13:47.165Z,10.40
2018-08-24T19:16:15.136Z,14.10
2018-08-24T19:18:48.657Z,11.83
2018-08-24T19:21:22.182Z,11.80
2018-08-24T19:23:50.220Z,13.07
2018-08-24T19:26:18.238Z,12.33
2018-08-24T19:28:51.719Z,12.40
2018-08-24T19:31:23.016Z,17.10
2018-08-24T19:33:51.048Z,15.80
2018-08-24T19:36:19.067Z,11.27
2018-08-24T19:38:47.111Z,17.07
2018-08-24T19:41:20.559Z,15.43
2018-08-24T19:43:48.647Z,12.13
2018-08-24T19:46:16.616Z,12.63
2018-08-24T19:48:50.027Z,12.30
2018-08-24T19:51:18.055Z,9.80
2018-08-24T19:53:46.121Z,15.00
2018-08-24T19:56:14.185Z,15.37
2018-08-24T19:58:47.638Z,15.23
2018-08-24T20:01:15.639Z,11.90
2018-08-24T20:03:43.692Z,12.67
2018-08-24T20:06:17.163Z,13.27
2018-08-24T20:08:50.590Z,14.17
2018-08-24T20:11:18.709Z,14.93
2018-08-24T20:13:46.740Z,13.67
2018-08-24T20:16:20.365Z,14.57
2018-08-24T20:18:48.523Z,15.07
2018-08-24T20:21:16.555Z,15.97
2018-08-24T20:23:44.592Z,14.40
2018-08-24T20:26:12.611Z,20.87
2018-08-24T20:28:40.611Z,15.00
2018-08-24T20:31:08.623Z,12.80
2018-08-24T20:33:36.654Z,18.20
2018-08-24T20:36:04.648Z,13.10
2018-08-24T20:38:32.667Z,13.93
2018-08-24T20:41:00.662Z,13.90
2018-08-24T20:43:28.668Z,15.90
2018-08-24T20:45:56.671Z,16.27
2018-08-24T20:48:24.704Z,14.90
2018-08-24T20:50:52.732Z,16.50
2018-08-24T20:53:20.731Z,17.80
2018-08-24T20:55:48.758Z,16.10
2018-08-24T20:58:16.778Z,20.43
2018-08-24T21:00:44.809Z,14.73
2018-08-24T21:03:12.815Z,15.10
2018-08-24T21:05:40.888Z,16.77
2018-08-24T21:08:08.842Z,16.50
2018-08-24T21:10:36.858Z,16.73
2018-08-24T21:13:04.855Z,17.33
2018-08-24T21:15:32.850Z,15.37
2018-08-24T21:18:00.860Z,15.50
2018-08-24T21:20:28.861Z,14.23
2018-08-24T21:22:56.851Z,28.60
2018-08-24T21:25:24.867Z,20.23
2018-08-24T21:27:53.184Z,18.40
2018-08-24T21:30:21.424Z,18.27
2018-08-24T21:32:49.298Z,19.70
2018-08-24T21:35:17.305Z,21.43
2018-08-24T21:37:45.310Z,18.23
2018-08-24T21:40:13.317Z,18.70
2018-08-24T21:42:41.318Z,23.03
2018-08-24T21:45:09.326Z,16.13
2018-08-24T21:47:37.325Z,17.90
2018-08-24T21:50:05.351Z,19.13
2018-08-24T21:52:33.355Z,16.20
2018-08-24T21:55:01.370Z,15.60
2018-08-24T21:57:29.354Z,17.67
2018-08-24T21:59:57.383Z,28.47
2018-08-24T22:02:25.366Z,22.23
2018-08-24T22:04:53.373Z,22.33
2018-08-24T22:07:21.392Z,23.33
2018-08-24T22:09:49.430Z,20.80
2018-08-24T22:12:17.437Z,16.00
2018-08-24T22:14:45.467Z,18.03
2018-08-24T22:17:13.474Z,20.50
2018-08-24T22:19:41.510Z,21.03
2018-08-24T22:22:09.510Z,17.13
2018-08-24T22:24:37.606Z,17.63
2018-08-24T22:27:05.706Z,16.50
2018-08-24T22:29:33.693Z,17.50
2018-08-24T22:32:01.685Z,18.87
2018-08-24T22:34:29.674Z,20.70
2018-08-24T22:36:57.674Z,20.37
2018-08-24T22:39:25.671Z,15.83
2018-08-24T22:41:53.660Z,15.10
2018-08-24T22:44:21.646Z,18.23
2018-08-24T22:46:49.638Z,17.37
2018-08-24T22:49:17.627Z,23.57
2018-08-24T22:51:45.630Z,19.03
2018-08-24T22:54:13.618Z,19.80
2018-08-24T22:56:41.618Z,17.20
2018-08-24T22:59:09.626Z,23.70
2018-08-24T23:01:37.743Z,21.10
2018-08-24T23:04:05.895Z,24.30
2018-08-24T23:06:33.902Z,17.70
2018-08-24T23:09:01.930Z,19.43
2018-08-24T23:11:30.421Z,18.33
2018-08-24T23:13:58.525Z,18.93
2018-08-24T23:16:26.675Z,18.60
2018-08-24T23:18:54.678Z,18.60
2018-08-24T23:21:22.678Z,20.47
2018-08-24T23:23:50.678Z,19.70
2018-08-24T23:26:18.690Z,19.13
2018-08-24T23:28:46.695Z,19.30
2018-08-24T23:31:14.710Z,18.07
2018-08-24T23:33:42.771Z,20.07
2018-08-24T23:36:10.785Z,19.60
2018-08-24T23:38:38.791Z,24.53
2018-08-24T23:41:06.804Z,20.27
2018-08-24T23:43:34.807Z,19.30
2018-08-24T23:46:02.815Z,17.87
2018-08-24T23:48:30.826Z,15.30
2018-08-24T23:50:58.848Z,16.40
2018-08-24T23:53:26.897Z,19.20
2018-08-24T23:55:54.987Z,17.37
2018-08-24T23:58:22.994Z,18.73
